Time;durP1;ratioP1;P1;durP2;ratioP2;P2;SDS_P1;SDS_P2;PMS_P1;PMS_P2;Temp;Humidity;BMP_temperature;BMP_pressure;BME280_temperature;BME280_humidity;BME280_pressure;Samples;Min_cycle;Max_cycle;Signal;HPM_P1;HPM_P2
2023/05/27 00:00:16;;;;;;;22.50;7.00;;;;;;;9.64;62.85;101168.66;133907;1301;22387;-74
2023/05/27 00:03:36;;;;;;;;;;;;;;;;;;;;;
2023/05/27 00:07:28;;;;;;;22.40;7.10;;;;;;;9.56;63.05;101164.93;133854;1305;22231;-73
2023/05/27 00:11:08;;;;;;;23.50;7.50;;;;;;;9.51;63.22;101163.04;133871;1299;22333;-73
2023/05/27 00:14:17;;;;;;;20.20;6.00;;;;;;;9.50;63.53;101158.95;133858;1304;22400;-74
2023/05/27 00:17:55;;;;;;;20.00;6.20;;;;;;;9.47;63.83;101162.94;133863;1304;22363;-73
2023/05/27 00:21:10;;;;;;;21.50;7.30;;;;;;;9.45;63.67;101160.40;133869;1301;22335;-73
2023/05/27 00:24:14;;;;;;;24.80;7.00;;;;;;;9.43;63.85;101162.52;133886;1301;22816;-74
2023/05/27 00:27:50;;;;;;;;;;;;;;;;;;;;;
2023/05/27 00:31:05;;;;;;;25.30;6.30;;;;;;;9.40;63.82;101163.80;133675;1307;22478;-72
2023/05/27 00:34:18;;;;;;;26.60;6.80;;;;;;;9.37;63.98;101162.35;133872;1302;22392;-73
2023/05/27 00:37:19;;;;;;;29.00;5.70;;;;;;;9.33;63.89;101164.48;133854;1307;22517;-72
2023/05/27 00:40:22;;;;;;;21.50;6.30;;;;;;;9.32;63.99;101163.45;133866;1307;23419;-73
2023/05/27 00:43:23;;;;;;;19.70;5.40;;;;;;;9.31;64.08;101160.91;133706;1299;23018;-72
2023/05/27 00:46:49;;;;;;;16.40;5.20;;;;;;;9.27;64.16;101158.77;133728;1301;22622;-73
2023/05/27 00:49:51;;;;;;;26.80;5.90;;;;;;;9.25;64.15;101160.55;133764;1304;22229;-72
2023/05/27 00:52:55;;;;;;;21.60;5.50;;;;;;;9.23;64.06;101160.09;133859;1301;23143;-72
2023/05/27 00:56:03;;;;;;;29.10;6.70;;;;;;;9.18;64.21;101161.55;133872;1307;22396;-75
2023/05/27 00:59:20;;;;;;;21.70;6.00;;;;;;;9.09;64.27;101161.39;133847;1301;22478;-74
2023/05/27 01:02:22;;;;;;;23.30;5.90;;;;;;;9.04;64.29;101162.05;133876;1299;22269;-72
2023/05/27 01:05:29;;;;;;;28.90;6.50;;;;;;;8.98;64.44;101164.42;133866;1300;22461;-72
2023/05/27 01:08:54;;;;;;;23.70;7.10;;;;;;;8.95;64.53;101167.52;133866;1304;22367;-72
2023/05/27 01:12:01;;;;;;;24.40;6.50;;;;;;;8.95;64.55;101170.20;133874;1302;22412;-72
2023/05/27 01:15:07;;;;;;;29.50;6.70;;;;;;;8.90;64.68;101166.69;133864;1300;23053;-74
2023/05/27 01:18:16;;;;;;;22.40;5.90;;;;;;;8.87;64.78;101168.77;133508;1307;22203;-72
2023/05/27 01:21:18;;;;;;;19.20;5.90;;;;;;;8.82;64.83;101167.61;133668;1307;22431;-72
2023/05/27 01:24:19;;;;;;;25.10;6.20;;;;;;;8.80;64.99;101164.29;133870;1304;23168;-72
2023/05/27 01:27:32;;;;;;;29.90;6.70;;;;;;;8.75;64.99;101168.38;133680;1301;22351;-78
2023/05/27 01:30:33;;;;;;;19.90;5.80;;;;;;;8.69;65.04;101169.60;133888;1301;22448;-72
2023/05/27 01:33:47;;;;;;;21.80;6.20;;;;;;;8.62;65.25;101174.39;133686;1300;22411;-78
2023/05/27 01:36:59;;;;;;;25.40;6.50;;;;;;;8.56;65.34;101179.66;133898;1301;22902;-72
2023/05/27 01:40:00;;;;;;;22.20;6.20;;;;;;;8.50;65.44;101177.27;133726;1302;22500;-72
2023/05/27 01:43:06;;;;;;;25.30;7.10;;;;;;;8.47;65.58;101183.69;133721;1306;22379;-72
2023/05/27 01:46:12;;;;;;;22.10;6.50;;;;;;;8.42;65.63;101184.01;133538;1306;22354;-73
2023/05/27 01:49:16;;;;;;;21.80;5.70;;;;;;;8.37;65.77;101188.77;133939;1299;22149;-72
2023/05/27 01:52:17;;;;;;;22.00;6.80;;;;;;;8.31;65.84;101182.21;133906;1300;22483;-72
2023/05/27 01:55:21;;;;;;;21.60;5.20;;;;;;;8.24;65.93;101183.98;133684;1302;22764;-72
2023/05/27 01:58:22;;;;;;;25.90;6.80;;;;;;;8.21;66.04;101187.83;133674;1301;22394;-72
2023/05/27 02:04:41;;;;;;;30.50;6.00;;;;;;;8.12;66.27;101187.69;133642;1301;23595;-73
2023/05/27 02:07:42;;;;;;;21.90;6.20;;;;;;;8.03;66.41;101185.34;133896;1301;22393;-73
2023/05/27 02:11:07;;;;;;;23.30;6.50;;;;;;;7.97;66.72;101182.35;133802;1296;22435;-72
2023/05/27 02:14:40;;;;;;;20.00;7.20;;;;;;;7.92;66.79;101178.84;133833;1299;22374;-71
2023/05/27 02:17:50;;;;;;;23.30;6.50;;;;;;;7.88;67.01;101176.52;133898;1300;23268;-73
2023/05/27 02:21:05;;;;;;;;;;;;;;;;;;;;;
2023/05/27 02:24:29;;;;;;;22.80;6.60;;;;;;;7.81;67.20;101178.33;133893;1300;22361;-72
2023/05/27 02:27:51;;;;;;;;;;;;;;;;;;;;;
2023/05/27 02:31:08;;;;;;;25.80;6.00;;;;;;;7.70;67.29;101179.64;133585;1301;23433;-72
2023/05/27 02:34:42;;;;;;;;;;;;;;;;;;;;;
2023/05/27 02:37:46;;;;;;;18.00;6.20;;;;;;;7.61;67.67;101186.75;133672;1301;22448;-72
2023/05/27 02:40:50;;;;;;;25.70;6.10;;;;;;;7.60;67.56;101185.80;133771;1301;22354;-73
2023/05/27 02:43:55;;;;;;;20.80;5.40;;;;;;;7.58;67.60;101183.70;133911;1300;23144;-75
2023/05/27 02:47:02;;;;;;;26.30;6.40;;;;;;;7.55;67.98;101184.05;133664;1300;22590;-72
2023/05/27 02:50:09;;;;;;;21.00;6.10;;;;;;;7.53;68.17;101184.09;133677;1306;22311;-72
2023/05/27 02:53:26;;;;;;;;;;;;;;;;;;;;;
2023/05/27 02:56:50;;;;;;;19.50;6.20;;;;;;;7.34;68.23;101190.66;133909;1299;22361;-72
2023/05/27 03:03:25;;;;;;;;;;;;;;;;;;;;;
2023/05/27 03:06:30;;;;;;;17.20;5.90;;;;;;;7.16;68.71;101199.83;133931;1300;22173;-72
2023/05/27 03:09:47;;;;;;;23.60;6.40;;;;;;;7.11;68.68;101205.67;133904;1301;22258;-72
2023/05/27 03:13:08;;;;;;;19.90;5.40;;;;;;;7.06;68.70;101207.25;133892;1301;22383;-74
2023/05/27 03:16:20;;;;;;;;;;;;;;;;;;;;;
2023/05/27 03:19:35;;;;;;;21.20;6.60;;;;;;;7.07;69.18;101210.73;133905;1300;25294;-72
2023/05/27 03:23:07;;;;;;;24.20;6.10;;;;;;;7.08;69.33;101210.81;133906;1299;22376;-73
2023/05/27 03:26:13;;;;;;;27.70;6.20;;;;;;;7.10;69.66;101216.46;133659;1306;22264;-72
2023/05/27 03:29:17;;;;;;;17.00;5.40;;;;;;;7.20;69.67;101220.09;133699;1300;23337;-72
2023/05/27 03:33:01;;;;;;;;;;;;;;;;;;;;;
2023/05/27 03:36:12;;;;;;;21.40;5.80;;;;;;;7.47;69.90;101227.75;133880;1306;22245;-72
2023/05/27 03:39:28;;;;;;;;;;;;;;;;;;;;;
2023/05/27 03:42:45;;;;;;;16.00;6.10;;;;;;;7.80;70.13;101225.48;133917;1300;22248;-72
2023/05/27 03:46:31;;;;;;;;;;;;;;;;;;;;;
2023/05/27 03:50:32;;;;;;;;;;;;;;;;;;;;;
2023/05/27 03:53:58;;;;;;;24.60;6.40;;;;;;;8.66;69.86;101235.44;133889;1301;22570;-76
2023/05/27 03:57:17;;;;;;;23.70;6.80;;;;;;;9.00;69.58;101236.48;133691;1304;23018;-72
2023/05/27 04:00:22;;;;;;;16.40;5.60;;;;;;;9.33;69.34;101237.23;133672;1307;22375;-72
2023/05/27 04:03:39;;;;;;;;;;;;;;;;;;;;;
2023/05/27 04:07:41;;;;;;;18.60;6.10;;;;;;;10.03;69.07;101242.24;133914;1301;22253;-72
2023/05/27 04:11:17;;;;;;;;;;;;;;;;;;;;;
2023/05/27 04:15:26;;;;;;;15.10;5.50;;;;;;;10.88;68.72;101248.06;133732;1302;22431;-73
2023/05/27 04:18:59;;;;;;;;;;;;;;;;;;;;;
2023/05/27 04:23:23;;;;;;;22.30;6.40;;;;;;;11.86;67.43;101248.77;133867;1307;22476;-72
2023/05/27 04:26:53;;;;;;;20.40;6.10;;;;;;;12.34;66.63;101251.43;133850;1300;22128;-79
2023/05/27 04:30:37;;;;;;;;;;;;;;;;;;;;;
2023/05/27 04:33:50;;;;;;;23.40;7.60;;;;;;;13.11;65.65;101254.96;133660;1294;22457;-72
2023/05/27 04:37:44;;;;;;;18.90;5.90;;;;;;;13.47;64.89;101251.26;133883;1301;23067;-73
2023/05/27 04:41:27;;;;;;;26.30;7.50;;;;;;;13.88;64.15;101249.28;133760;1301;22350;-74
2023/05/27 04:46:29;;;;;;;20.00;6.60;;;;;;;14.28;63.20;101253.42;133054;1305;22456;-76
2023/05/27 04:54:16;;;;;;;;;;;;;;;;;;;;;
2023/05/27 04:57:50;;;;;;;;;;;;;;;;;;;;;
2023/05/27 05:01:58;;;;;;;;;;;;;;;;;;;;;
2023/05/27 05:06:06;;;;;;;17.70;6.50;;;;;;;16.04;58.71;101253.86;133821;1301;22446;-73
2023/05/27 05:09:37;;;;;;;18.80;6.10;;;;;;;16.26;57.48;101255.55;133890;1301;22352;-72
2023/05/27 05:13:15;;;;;;;;;;;;;;;;;;;;;
2023/05/27 05:16:44;;;;;;;20.80;6.60;;;;;;;16.85;56.71;101258.30;133928;1304;23125;-80
2023/05/27 05:21:06;;;;;;;21.20;6.40;;;;;;;17.15;55.78;101259.30;133686;1301;22516;-73
2023/05/27 05:28:32;;;;;;;15.60;5.80;;;;;;;17.20;54.07;101260.05;133704;1301;22422;-73
2023/05/27 05:32:15;;;;;;;14.90;5.80;;;;;;;17.04;53.44;101262.81;133719;1301;22570;-73
2023/05/27 05:35:39;;;;;;;19.90;6.00;;;;;;;17.06;53.82;101263.03;133698;1302;22450;-73
2023/05/27 05:39:35;;;;;;;15.10;4.70;;;;;;;17.49;53.33;101263.45;133897;1300;23050;-74
2023/05/27 05:43:06;;;;;;;;;;;;;;;;;;;;;
2023/05/27 05:50:38;;;;;;;;;;;;;;;;;;;;;
2023/05/27 05:53:54;;;;;;;14.40;4.20;;;;;;;16.72;50.45;101262.55;133649;1301;22439;-73
2023/05/27 05:57:32;;;;;;;15.60;4.60;;;;;;;16.55;49.95;101268.10;133906;1300;22468;-73
2023/05/27 06:01:02;;;;;;;16.80;4.40;;;;;;;16.37;50.39;101274.27;133937;1301;22400;-73
2023/05/27 06:09:07;;;;;;;12.10;4.10;;;;;;;16.64;50.08;101279.52;133847;1300;22361;-73
2023/05/27 06:16:23;;;;;;;9.50;3.30;;;;;;;16.26;48.36;101275.66;133897;1299;22410;-78
2023/05/27 06:20:24;;;;;;;;;;;;;;;;;;;;;
2023/05/27 06:24:29;;;;;;;;;;;;;;;;;;;;;
2023/05/27 06:28:15;;;;;;;7.80;3.50;;;;;;;16.39;46.93;101277.80;133601;1299;22480;-73
2023/05/27 06:32:48;;;;;;;9.00;3.20;;;;;;;16.34;46.57;101277.06;133923;1299;22378;-73
2023/05/27 06:39:19;;;;;;;10.80;3.90;;;;;;;16.68;47.03;101274.58;133607;1306;22449;-78
2023/05/27 06:43:21;;;;;;;8.40;3.60;;;;;;;17.05;47.52;101271.13;133907;1298;22385;-73
2023/05/27 06:47:01;;;;;;;;;;;;;;;;;;;;;
2023/05/27 06:57:57;;;;;;;11.00;3.30;;;;;;;17.70;44.23;101289.75;133902;1298;22377;-73
2023/05/27 07:02:18;;;;;;;;;;;;;;;;;;;;;
2023/05/27 07:10:55;;;;;;;;;;;;;;;;;;;;;
2023/05/27 07:18:48;;;;;;;;;;;;;;;;;;;;;
2023/05/27 07:30:16;;;;;;;6.50;2.20;;;;;;;17.94;42.24;101274.33;133844;1299;23157;-74
2023/05/27 07:34:23;;;;;;;9.80;3.10;;;;;;;17.94;41.86;101268.52;133885;1300;22528;-74
2023/05/27 07:38:03;;;;;;;;;;;;;;;;;;;;;
2023/05/27 07:42:07;;;;;;;;;;;;;;;;;;;;;
2023/05/27 07:45:49;;;;;;;;;;;;;;;;;;;;;
2023/05/27 07:49:52;;;;;;;;;;;;;;;;;;;;;
2023/05/27 07:53:52;;;;;;;;;;;;;;;;;;;;;
2023/05/27 07:57:21;;;;;;;5.50;2.10;;;;;;;18.44;40.76;101260.24;133463;1306;307167;-79
2023/05/27 08:01:32;;;;;;;;;;;;;;;;;;;;;
2023/05/27 08:04:59;;;;;;;6.00;2.20;;;;;;;18.45;39.01;101258.39;133719;1306;23198;-68
2023/05/27 08:08:38;;;;;;;9.90;2.40;;;;;;;18.16;39.11;101253.85;133870;1301;22399;-66
2023/05/27 08:12:39;;;;;;;;;;;;;;;;;;;;;
2023/05/27 08:16:38;;;;;;;;;;;;;;;;;;;;;
2023/05/27 08:20:13;;;;;;;6.50;2.60;;;;;;;18.31;39.27;101250.56;133725;1301;22357;-76
2023/05/27 08:24:44;;;;;;;5.50;2.60;;;;;;;18.08;39.58;101240.19;133774;1299;22509;-76
2023/05/27 08:28:39;;;;;;;6.10;2.70;;;;;;;18.39;39.87;101238.81;133504;1299;22980;-78
2023/05/27 08:32:42;;;;;;;5.80;2.60;;;;;;;18.81;39.70;101239.16;133927;1299;22477;-79
2023/05/27 08:40:23;;;;;;;7.00;2.90;;;;;;;18.82;39.31;101230.61;133592;1300;22378;-81
2023/05/27 08:48:14;;;;;;;7.20;2.90;;;;;;;18.65;39.57;101231.09;133669;1300;22447;-79
2023/05/27 08:51:48;;;;;;;10.30;3.50;;;;;;;18.89;40.60;101231.07;133924;1298;22146;-80
2023/05/27 08:55:05;;;;;;;7.60;2.80;;;;;;;19.23;39.92;101228.06;133836;1299;22210;-77
2023/05/27 08:58:30;;;;;;;5.00;2.50;;;;;;;19.45;39.56;101225.23;133581;1306;23208;-77
2023/05/27 09:02:24;;;;;;;;;;;;;;;;;;;;;
2023/05/27 09:06:31;;;;;;;9.30;3.20;;;;;;;20.21;38.78;101221.63;133911;1301;22351;-77
2023/05/27 09:14:28;;;;;;;6.30;2.70;;;;;;;20.44;38.08;101219.10;133631;1300;22421;-77
2023/05/27 09:18:16;;;;;;;;;;;;;;;;;;;;;
2023/05/27 09:22:03;;;;;;;8.60;3.20;;;;;;;19.75;37.55;101217.09;133898;1299;22334;-74
2023/05/27 09:25:17;;;;;;;7.00;3.50;;;;;;;19.69;37.43;101219.16;133914;1299;22249;-74
2023/05/27 09:28:38;;;;;;;7.90;3.20;;;;;;;19.46;37.60;101210.28;133792;1300;22472;-74
2023/05/27 09:32:09;;;;;;;;;;;;;;;;;;;;;
2023/05/27 09:36:08;;;;;;;;;;;;;;;;;;;;;
2023/05/27 09:40:11;;;;;;;;;;;;;;;;;;;;;
2023/05/27 09:44:06;;;;;;;;;;;;;;;;;;;;;
2023/05/27 09:47:34;;;;;;;;;;;;;;;;;;;;;
2023/05/27 09:51:07;;;;;;;;;;;;;;;;;;;;;
2023/05/27 10:03:22;;;;;;;8.20;3.00;;;;;;;20.94;37.33;101190.54;133761;1306;22459;-87
2023/05/27 10:07:10;;;;;;;7.40;2.60;;;;;;;21.26;36.81;101188.23;133829;1301;22367;-81
2023/05/27 10:11:10;;;;;;;;;;;;;;;;;;;;;
2023/05/27 10:14:46;;;;;;;;;;;;;;;22.12;36.49;101179.19;133824;1304;22574;-75
2023/05/27 10:18:35;;;;;;;;;;;;;;;;;;;;;
2023/05/27 10:22:49;;;;;;;;;;;;;;;;;;;;;
2023/05/27 10:27:23;;;;;;;;;;;;;;;;;;;;;
2023/05/27 10:31:28;;;;;;;5.50;2.40;;;;;;;22.47;34.31;101158.05;133382;1306;22391;-75
2023/05/27 10:35:17;;;;;;;;;;;;;;;;;;;;;
2023/05/27 10:43:58;;;;;;;;;;;;;;;;;;;;;
2023/05/27 10:52:10;;;;;;;;;;;;;;;;;;;;;
2023/05/27 11:12:05;;;;;;;4.90;2.50;;;;;;;20.18;33.52;101149.70;133701;1304;23439;-72
2023/05/27 11:16:09;;;;;;;;;;;;;;;;;;;;;
2023/05/27 11:20:22;;;;;;;;;;;;;;;;;;;;;
2023/05/27 11:24:22;;;;;;;;;;;;;;;;;;;;;
2023/05/27 11:28:16;;;;;;;;;;;;;;;;;;;;;
2023/05/27 11:31:58;;;;;;;5.80;2.20;;;;;;;20.46;33.90;101138.58;133911;1301;22350;-72
2023/05/27 11:35:33;;;;;;;3.80;2.40;;;;;;;20.79;33.60;101140.65;133846;1300;22552;-71
2023/05/27 11:43:44;;;;;;;7.00;2.20;;;;;;;20.89;32.70;101132.27;133680;1300;22389;-72
2023/05/27 11:50:57;;;;;;;;;;;;;;;;;;;;;
2023/05/27 11:54:38;;;;;;;4.30;2.40;;;;;;;20.23;32.43;101125.08;133900;1300;22409;-76
2023/05/27 11:59:24;;;;;;;5.40;2.40;;;;;;;20.17;33.30;101117.29;133830;1300;22439;-72
2023/05/27 12:07:13;;;;;;;3.20;2.00;;;;;;;20.79;33.53;101103.20;133607;1299;22399;-72
2023/05/27 12:11:00;;;;;;;;;;;;;;;;;;;;;
2023/05/27 12:14:50;;;;;;;4.00;2.30;;;;;;;20.45;33.06;101097.16;133790;1293;22272;-78
2023/05/27 12:22:30;;;;;;;8.10;2.50;;;;;;;20.31;33.93;101100.67;133855;1300;22231;-73
2023/05/27 12:30:34;;;;;;;3.90;2.30;;;;;;;20.30;34.17;101101.02;133754;1305;22187;-79
2023/05/27 12:34:28;;;;;;;3.30;2.20;;;;;;;20.29;34.55;101099.31;133847;1300;22347;-71
2023/05/27 12:38:10;;;;;;;6.10;2.00;;;;;;;20.10;33.92;101094.91;133652;1300;22388;-70
2023/05/27 12:42:36;;;;;;;5.20;2.30;;;;;;;20.01;33.98;101091.62;133833;1301;22435;-71
2023/05/27 12:46:34;;;;;;;5.20;2.50;;;;;;;20.05;34.11;101088.31;133767;1299;23296;-72
2023/05/27 12:50:07;;;;;;;5.10;2.10;;;;;;;20.05;34.23;101083.30;133730;1301;22367;-69
2023/05/27 12:53:27;;;;;;;3.00;2.30;;;;;;;19.93;33.98;101080.67;133852;1304;22369;-69
2023/05/27 12:56:53;;;;;;;3.90;2.20;;;;;;;19.77;34.11;101075.08;133693;1307;22376;-71
2023/05/27 13:00:09;;;;;;;4.80;1.90;;;;;;;19.71;34.51;101077.42;133862;1300;22589;-70
2023/05/27 13:04:11;;;;;;;3.50;2.00;;;;;;;19.79;34.74;101071.40;133716;1299;22160;-70
2023/05/27 13:07:02;;;;;;;5.20;2.30;;;;;;;19.83;34.55;101066.15;133770;1293;23279;-72
2023/05/27 13:10:27;;;;;;;5.50;2.20;;;;;;;19.89;34.93;101059.27;133908;1300;22222;-70
2023/05/27 13:17:40;;;;;;;2.80;1.70;;;;;;;19.97;34.63;101057.46;133728;1299;22376;-74
2023/05/27 13:21:57;;;;;;;5.00;2.20;;;;;;;19.92;34.86;101057.26;133790;1293;22442;-76
2023/05/27 13:26:20;;;;;;;5.90;2.30;;;;;;;19.80;34.44;101054.01;133819;1301;22396;-74
2023/05/27 13:29:51;;;;;;;3.50;2.20;;;;;;;19.71;34.75;101046.91;133789;1302;22345;-74
2023/05/27 13:33:07;;;;;;;6.80;2.50;;;;;;;19.60;34.03;101044.94;133745;1297;22386;-73
2023/05/27 13:36:52;;;;;;;3.70;2.20;;;;;;;19.58;34.13;101037.68;133860;1300;22371;-79
2023/05/27 13:40:14;;;;;;;6.60;2.30;;;;;;;19.85;34.51;101032.23;133846;1301;22416;-73
2023/05/27 13:43:27;;;;;;;5.20;2.20;;;;;;;19.92;34.06;101032.73;133642;1299;22663;-72
2023/05/27 13:46:51;;;;;;;3.40;1.90;;;;;;;19.82;33.54;101029.60;133500;1300;22429;-72
2023/05/27 13:50:36;;;;;;;;;;;;;;;;;;;;;
2023/05/27 13:54:24;;;;;;;4.90;2.30;;;;;;;19.75;33.90;101018.04;133862;1300;23176;-73
2023/05/27 13:57:59;;;;;;;6.10;2.50;;;;;;;19.95;33.45;101018.93;133834;1301;22183;-73
2023/05/27 14:09:37;;;;;;;;;;;;;;;;;;;;;
2023/05/27 14:13:23;;;;;;;3.00;1.80;;;;;;;19.64;33.22;101003.10;133832;1300;22875;-72
2023/05/27 14:16:27;;;;;;;5.00;2.30;;;;;;;19.53;33.31;101002.31;133827;1304;22389;-71
2023/05/27 14:19:58;;;;;;;;;;;;;;;;;;;;;
2023/05/27 14:23:23;;;;;;;;;;;;;;;;;;;;;
2023/05/27 14:27:03;;;;;;;;;;;;;;;;;;;;;
2023/05/27 14:30:29;;;;;;;4.10;2.20;;;;;;;19.15;33.49;101002.17;133810;1304;22394;-74
2023/05/27 14:34:45;;;;;;;4.60;2.10;;;;;;;19.08;33.54;100994.74;133848;1300;23203;-71
2023/05/27 14:37:57;;;;;;;3.20;1.90;;;;;;;19.01;33.75;100989.88;133643;1306;22839;-72
2023/05/27 14:41:31;;;;;;;5.10;2.00;;;;;;;18.99;33.78;100987.31;133813;1300;22244;-78
2023/05/27 14:49:37;;;;;;;;;;;;;;;19.08;34.55;100984.77;133685;1300;22465;-73
2023/05/27 14:53:53;;;;;;;;;;;;;;;;;;;;;
2023/05/27 14:58:14;;;;;;;6.00;2.00;;;;;;;18.97;34.21;100975.29;133777;1306;22379;-72
2023/05/27 15:01:10;;;;;;;6.00;2.50;;;;;;;18.97;34.32;100974.18;133774;1307;22371;-72
2023/05/27 15:04:43;;;;;;;6.90;2.20;;;;;;;18.92;34.15;100970.89;133522;1303;22255;-77
2023/05/27 15:08:49;;;;;;;5.10;1.70;;;;;;;18.90;34.83;100969.39;133773;1301;22125;-73
2023/05/27 15:12:51;;;;;;;4.60;2.30;;;;;;;18.94;34.88;100967.26;133606;1300;23805;-71
2023/05/27 15:16:13;;;;;;;7.60;2.40;;;;;;;18.87;34.74;100963.01;133640;1301;22426;-71
2023/05/27 15:19:34;;;;;;;4.80;2.10;;;;;;;18.84;34.89;100961.84;133860;1302;22468;-71
2023/05/27 15:22:44;;;;;;;6.20;2.30;;;;;;;18.80;34.54;100956.73;133707;1301;22369;-75
2023/05/27 15:26:28;;;;;;;6.00;2.20;;;;;;;18.76;34.76;100954.48;133891;1301;22380;-75
2023/05/27 15:29:54;;;;;;;7.10;2.50;;;;;;;18.73;34.77;100952.74;133883;1300;22384;-75
2023/05/27 15:37:53;;;;;;;;;;;;;;;;;;;;;
2023/05/27 15:41:22;;;;;;;;;;;;;;;;;;;;;
2023/05/27 15:44:54;;;;;;;;;;;;;;;;;;;;;
2023/05/27 15:49:01;;;;;;;4.10;2.40;;;;;;;18.68;35.34;100939.23;133689;1299;22433;-72
2023/05/27 15:52:25;;;;;;;4.90;2.30;;;;;;;18.61;35.51;100934.70;133823;1301;23211;-75
2023/05/27 15:56:20;;;;;;;5.00;2.60;;;;;;;18.57;35.60;100933.03;133793;1301;22141;-77
2023/05/27 15:59:50;;;;;;;;;;;;;;;;;;;;;
2023/05/27 16:03:20;;;;;;;3.50;2.00;;;;;;;18.54;36.43;100925.95;133888;1301;22390;-75
2023/05/27 16:06:39;;;;;;;8.90;2.70;;;;;;;18.52;36.22;100922.23;133913;1301;22388;-71
2023/05/27 16:13:46;;;;;;;7.70;2.10;;;;;;;18.44;36.40;100912.23;133899;1300;22442;-72
2023/05/27 16:17:12;;;;;;;;;;;;;;;;;;;;;
2023/05/27 16:21:02;;;;;;;8.70;2.60;;;;;;;18.38;36.38;100907.80;133899;1302;22361;-72
2023/05/27 16:24:15;;;;;;;5.90;2.70;;;;;;;18.29;36.48;100902.10;133595;1301;22186;-72
2023/05/27 16:27:37;;;;;;;4.80;2.10;;;;;;;18.26;36.68;100899.84;133830;1301;23032;-78
2023/05/27 16:30:41;;;;;;;4.80;2.30;;;;;;;18.21;36.55;100902.50;133693;1299;23126;-76
2023/05/27 16:33:55;;;;;;;2.90;2.10;;;;;;;18.20;36.76;100902.37;133719;1301;22387;-72
2023/05/27 16:36:59;;;;;;;6.20;2.30;;;;;;;18.20;36.94;100901.17;133682;1299;22370;-73
2023/05/27 16:40:03;;;;;;;5.70;2.30;;;;;;;18.20;36.84;100903.69;133342;1301;23135;-72
2023/05/27 16:43:36;;;;;;;6.30;2.60;;;;;;;18.16;36.62;100902.76;133497;1291;24354;-74
2023/05/27 16:46:41;;;;;;;8.60;2.80;;;;;;;18.14;36.88;100899.20;133860;1299;23279;-72
2023/05/27 16:50:44;;;;;;;6.20;2.40;;;;;;;18.10;36.74;100896.56;133910;1300;22465;-75
2023/05/27 16:58:40;;;;;;;;;;;;;;;;;;;;;
2023/05/27 17:01:44;;;;;;;8.00;2.20;;;;;;;17.90;36.51;100885.50;133688;1301;23203;-68
2023/05/27 17:04:48;;;;;;;5.20;1.90;;;;;;;17.85;36.83;100885.98;133912;1299;22329;-74
2023/05/27 17:08:58;;;;;;;4.90;2.20;;;;;;;17.81;36.63;100882.33;133707;1299;22354;-74
2023/05/27 17:11:58;;;;;;;;;;;;;;;;;;;;;
2023/05/27 17:16:03;;;;;;;2.40;1.90;;;;;;;17.69;36.80;100884.48;133910;1301;23384;-75
2023/05/27 17:24:21;;;;;;;5.60;2.20;;;;;;;17.60;37.03;100881.27;133439;1300;22560;-74
2023/05/27 17:32:21;;;;;;;4.40;2.40;;;;;;;17.46;37.69;100872.77;133731;1302;22192;-77
2023/05/27 17:36:10;;;;;;;5.50;2.40;;;;;;;17.41;38.02;100870.34;133905;1304;22468;-74
2023/05/27 17:40:18;;;;;;;;;;;;;;;;;;;;;
2023/05/27 17:44:13;;;;;;;10.40;2.40;;;;;;;17.26;38.50;100872.69;132521;1306;22369;-72
2023/05/27 17:52:08;;;;;;;14.20;3.20;;;;;;;17.11;38.75;100877.95;133801;1301;22159;-73
2023/05/27 17:55:26;;;;;;;7.60;3.10;;;;;;;17.07;38.88;100873.04;133842;1300;23041;-74
2023/05/27 17:58:33;;;;;;;7.50;2.90;;;;;;;17.02;39.12;100875.59;133784;1300;22363;-74
2023/05/27 18:01:40;;;;;;;7.50;2.60;;;;;;;16.96;39.33;100870.09;133920;1299;22417;-74
2023/05/27 18:05:32;;;;;;;5.10;2.70;;;;;;;16.88;39.47;100869.66;133917;1301;22437;-74
2023/05/27 18:12:36;;;;;;;5.60;2.50;;;;;;;16.72;39.91;100862.00;133900;1300;22467;-74
2023/05/27 18:15:41;;;;;;;4.70;2.30;;;;;;;16.61;40.17;100862.08;133798;1301;23071;-74
2023/05/27 18:18:50;;;;;;;8.70;3.10;;;;;;;16.49;40.61;100857.78;133717;1301;22484;-73
2023/05/27 18:22:01;;;;;;;;;;;;;;;;;;;;;
2023/05/27 18:25:38;;;;;;;;;;;;;;;;;;;;;
2023/05/27 18:37:06;;;;;;;13.30;4.20;;;;;;;15.93;41.92;100864.92;133945;1299;22355;-76
2023/05/27 18:40:26;;;;;;;25.20;10.30;;;;;;;15.79;42.18;100869.16;133958;1306;22282;-76
2023/05/27 18:44:00;;;;;;;;;;;;;;;;;;;;;
2023/05/27 18:47:51;;;;;;;11.90;5.00;;;;;;;15.51;42.94;100881.16;133681;1299;23027;-76
2023/05/27 18:51:15;;;;;;;10.90;4.50;;;;;;;15.36;43.26;100884.45;133931;1301;22391;-76
2023/05/27 19:00:08;;;;;;;11.90;5.00;;;;;;;15.11;44.02;100892.80;133865;1300;22480;-76
2023/05/27 19:04:28;;;;;;;10.10;4.90;;;;;;;14.94;44.56;100896.14;133735;1300;22429;-77
2023/05/27 19:08:06;;;;;;;12.90;5.80;;;;;;;14.82;45.04;100903.72;133612;1301;22252;-76
2023/05/27 19:11:21;;;;;;;12.30;5.90;;;;;;;14.68;45.56;100905.50;133859;1299;23321;-77
2023/05/27 19:15:34;;;;;;;13.20;5.30;;;;;;;14.54;45.95;100906.58;133910;1300;22424;-76
2023/05/27 19:18:56;;;;;;;;;;;;;;;;;;;;;
2023/05/27 19:22:12;;;;;;;13.80;7.20;;;;;;;14.19;46.86;100910.92;133899;1301;22485;-76
2023/05/27 19:26:41;;;;;;;11.60;5.70;;;;;;;14.09;47.21;100913.89;133957;1300;22465;-76
2023/05/27 19:30:16;;;;;;;;;;;;;;;;;;;;;
2023/05/27 19:41:46;;;;;;;;;;;;;;;;;;;;;
2023/05/27 19:45:33;;;;;;;17.00;8.50;;;;;;;13.34;49.36;100916.90;133926;1300;22728;-76
2023/05/27 19:49:05;;;;;;;;;;;;;;;;;;;;;
2023/05/27 19:52:42;;;;;;;24.30;10.10;;;;;;;13.08;50.09;100917.40;133926;1300;22440;-73
2023/05/27 19:56:29;;;;;;;24.10;9.60;;;;;;;12.93;50.38;100917.73;133730;1306;22521;-74
2023/05/27 20:00:35;;;;;;;19.50;10.20;;;;;;;12.76;51.11;100913.30;129909;1300;24346;-74
2023/05/27 20:04:16;;;;;;;17.50;9.90;;;;;;;12.61;51.28;100910.78;133893;1299;23039;-74
2023/05/27 20:07:20;;;;;;;18.00;10.40;;;;;;;12.48;51.38;100913.02;133743;1299;22389;-71
2023/05/27 20:10:47;;;;;;;19.20;9.60;;;;;;;12.39;51.52;100917.13;133854;1301;22326;-73
2023/05/27 20:13:54;;;;;;;16.70;8.70;;;;;;;12.33;51.40;100914.19;133911;1299;22884;-70
2023/05/27 20:17:20;;;;;;;14.40;8.20;;;;;;;12.28;51.42;100915.65;133919;1300;22386;-71
2023/05/27 20:20:51;;;;;;;19.30;8.30;;;;;;;12.22;51.59;100920.31;133779;1300;22365;-70
2023/05/27 20:24:27;;;;;;;14.30;8.50;;;;;;;12.18;51.69;100920.11;133858;1300;22972;-73
2023/05/27 20:27:59;;;;;;;20.00;7.20;;;;;;;12.12;51.76;100920.24;133908;1300;22888;-70
2023/05/27 20:31:23;;;;;;;16.80;7.80;;;;;;;12.06;51.71;100920.02;133909;1300;22237;-71
2023/05/27 20:34:33;;;;;;;13.70;6.60;;;;;;;12.00;51.73;100918.84;133945;1294;22434;-70
2023/05/27 20:37:44;;;;;;;13.70;6.00;;;;;;;11.94;51.70;100918.58;133901;1293;22382;-73
2023/05/27 20:40:48;;;;;;;12.40;6.80;;;;;;;11.87;51.83;100918.98;133894;1297;22391;-70
2023/05/27 20:43:49;;;;;;;24.10;6.30;;;;;;;11.79;51.86;100921.16;133904;1300;22380;-70
2023/05/27 20:46:50;;;;;;;13.50;7.30;;;;;;;11.70;51.82;100917.23;133877;1300;23222;-70
2023/05/27 20:50:08;;;;;;;16.10;6.90;;;;;;;11.61;51.87;100915.52;133863;1300;22464;-72
2023/05/27 20:53:12;;;;;;;16.10;6.20;;;;;;;11.52;51.98;100917.63;133939;1301;22489;-69
2023/05/27 20:56:17;;;;;;;11.40;6.10;;;;;;;11.47;51.90;100920.08;133933;1301;22433;-73
2023/05/27 20:59:29;;;;;;;;;;;;;;;;;;;;;
2023/05/27 21:02:34;;;;;;;11.40;5.60;;;;;;;11.37;52.26;100919.16;133754;1300;22424;-70
2023/05/27 21:05:36;;;;;;;14.20;5.50;;;;;;;11.34;52.33;100918.95;133934;1300;22376;-71
2023/05/27 21:08:39;;;;;;;9.60;5.80;;;;;;;11.29;52.17;100920.48;133755;1300;22442;-70
2023/05/27 21:11:40;;;;;;;12.70;5.90;;;;;;;11.23;52.26;100919.09;133762;1299;22435;-75
2023/05/27 21:14:57;;;;;;;;;;;;;;;11.18;52.28;100915.71;133942;1298;22482;-72
2023/05/27 21:17:59;;;;;;;18.90;6.50;;;;;;;11.14;52.23;100913.98;133759;1300;23020;-76
2023/05/27 21:21:00;;;;;;;18.30;5.60;;;;;;;11.11;52.13;100914.63;133841;1301;22404;-70
2023/05/27 21:24:04;;;;;;;13.00;5.80;;;;;;;11.06;52.06;100915.60;133927;1299;23195;-71
2023/05/27 21:27:08;;;;;;;12.00;5.60;;;;;;;10.95;52.20;100916.73;133670;1306;22449;-73
2023/05/27 21:30:19;;;;;;;12.00;5.60;;;;;;;10.86;52.72;100918.67;133682;1304;23218;-70
2023/05/27 21:33:20;;;;;;;8.50;5.60;;;;;;;10.77;52.58;100920.20;133971;1299;22246;-70
2023/05/27 21:36:22;;;;;;;13.50;5.60;;;;;;;10.69;52.79;100919.80;133941;1306;22388;-72
2023/05/27 21:39:29;;;;;;;10.10;5.30;;;;;;;10.61;53.00;100915.58;133924;1299;22423;-70
2023/05/27 21:42:31;;;;;;;9.60;5.10;;;;;;;10.56;52.89;100915.02;133848;1298;22429;-70
2023/05/27 21:45:33;;;;;;;9.60;5.60;;;;;;;10.54;52.99;100912.04;133940;1300;22407;-69